Impacts TAF Board
For situational awareness. Not to be used for flight planning purposes.
IDs:

KCLE - Cleveland/Hopkins In, OH, US

Issued at 2048 UTC 18 Dec 2018
Updated at 2302 UTC 18 Dec 2018
Potential Impact None Slight Moderate High
Time2251Z 19/00Z 19/01Z 19/02Z 19/03Z 19/04Z 19/05Z 19/06Z 19/07Z 19/08Z 19/09Z 19/10Z 19/11Z 19/12Z>>
Type OBS PRVL PRVL PRVL PRVL PRVL PRVL PRVL PRVL PRVL PRVL PRVL PRVL PRVL
VIS 10 >6 >6 >6 >6 >6 >6 >6 >6 >6 >6 >6 >6 >6
CIG -- -- -- -- -- -- -- -- -- -- -- -- -- --
Cover FEW SCT SCT SCT SCT SCT SCT SCT SCT SCT SCT SCT SCT SCT
FltCat VFR VFR VFR VFR VFR VFR VFR VFR VFR VFR VFR VFR VFR VFR
WX -- -- -- -- -- -- -- -- -- -- -- -- -- --
WDir 40 VRB VRB VRB VRB 190 190 190 190 190 190 190 190 190
WSpd 4 5 5 5 5 6 6 6 6 6 6 6 6 6
WGst -- -- -- -- -- -- -- -- -- -- -- -- -- --
Raw TAF
KCLE 182048Z 1821/1924 VRB05KT P6SM SCT030
  FM190400 19006KT P6SM SCT180


Raw METAR
KCLE 182251Z 04004KT 10SM FEW040 FEW250 00/M04 A3020 RMK AO2 SLP234 T00001044
KCLE 182151Z 01004KT 10SM FEW250 01/M04 A3022 RMK AO2 SLP240 T00111044
KCLE 182051Z 01007KT 10SM FEW250 02/M04 A3022 RMK AO2 SLP243 T00221044 55004

METAR Board
Radar Display
Forecast Discussion
For situational awareness. Not to be used for flight planning purposes.